Аэропорт: Ульяновск-Восточный. Ульяновск

ICAO: UWLW

METAR:
2019-09-21 16:00:00
UWLW 211600Z 15001MPS 8000 NSC 04/02 Q1008 R02/CLRD60 NOSIG RMK QFE749
METAR:
2019-09-21 13:45:00
TAF UWLW 211345Z 2115/2215 35003G08MPS 8000 BKN015 TEMPO 2118/2204 3100 BR BKN011 BECMG 2204/2205 26003MPS TEMPO 2205/2215 20006MPS 3100 -SHRA BKN013CB